sensor_id;sensor_type;location;lat;lon;timestamp;pressure;altitude;pressure_sealevel;temperature
66473;BMP280;66089;50.000;10.502;2022-12-18T07:44:41;100309.78;;;-6.29
66473;BMP280;66089;50.000;10.502;2022-12-18T07:47:07;100307.84;;;-6.10
66473;BMP280;66089;50.000;10.502;2022-12-18T07:49:32;100311.75;;;-5.94
66473;BMP280;66089;50.000;10.502;2022-12-18T07:51:58;100310.16;;;-5.96
66473;BMP280;66089;50.000;10.502;2022-12-18T07:54:24;100305.75;;;-5.82
66473;BMP280;66089;50.000;10.502;2022-12-18T07:56:50;100313.91;;;-5.71
66473;BMP280;66089;50.000;10.502;2022-12-18T07:59:15;100310.53;;;-5.68
66473;BMP280;66089;50.000;10.502;2022-12-18T08:01:40;100318.75;;;-5.65
66473;BMP280;66089;50.000;10.502;2022-12-18T08:04:06;100316.34;;;-5.68
66473;BMP280;66089;50.000;10.502;2022-12-18T08:06:31;100315.97;;;-5.46
66473;BMP280;66089;50.000;10.502;2022-12-18T08:08:57;100313.31;;;-5.37
66473;BMP280;66089;50.000;10.502;2022-12-18T08:11:24;100307.44;;;-5.35
66473;BMP280;66089;50.000;10.502;2022-12-18T08:13:49;100323.97;;;-5.31
66473;BMP280;66089;50.000;10.502;2022-12-18T08:16:15;100317.28;;;-5.25
66473;BMP280;66089;50.000;10.502;2022-12-18T08:18:41;100312.97;;;-5.19
66473;BMP280;66089;50.000;10.502;2022-12-18T08:21:10;100314.53;;;-5.15
66473;BMP280;66089;50.000;10.502;2022-12-18T08:23:35;100321.84;;;-5.04
66473;BMP280;66089;50.000;10.502;2022-12-18T08:26:01;100325.91;;;-5.00
66473;BMP280;66089;50.000;10.502;2022-12-18T08:28:26;100329.16;;;-4.97
66473;BMP280;66089;50.000;10.502;2022-12-18T08:30:52;100329.16;;;-4.97
66473;BMP280;66089;50.000;10.502;2022-12-18T08:33:17;100320.59;;;-4.83
66473;BMP280;66089;50.000;10.502;2022-12-18T08:35:42;100322.97;;;-4.77
66473;BMP280;66089;50.000;10.502;2022-12-18T08:38:08;100324.50;;;-4.72
66473;BMP280;66089;50.000;10.502;2022-12-18T08:40:33;100314.72;;;-4.81
66473;BMP280;66089;50.000;10.502;2022-12-18T08:42:58;100311.28;;;-4.75
66473;BMP280;66089;50.000;10.502;2022-12-18T08:45:42;100322.44;;;-4.51
66473;BMP280;66089;50.000;10.502;2022-12-18T08:48:08;100318.34;;;-4.54
66473;BMP280;66089;50.000;10.502;2022-12-18T08:50:33;100319.75;;;-4.44
66473;BMP280;66089;50.000;10.502;2022-12-18T08:52:58;100314.63;;;-4.38
66473;BMP280;66089;50.000;10.502;2022-12-18T08:55:24;100309.53;;;-4.32
66473;BMP280;66089;50.000;10.502;2022-12-18T08:57:50;100310.09;;;-4.20
66473;BMP280;66089;50.000;10.502;2022-12-18T09:00:15;100305.19;;;-4.25
66473;BMP280;66089;50.000;10.502;2022-12-18T09:02:40;100310.00;;;-4.17
66473;BMP280;66089;50.000;10.502;2022-12-18T09:05:06;100304.47;;;-4.28
66473;BMP280;66089;50.000;10.502;2022-12-18T09:07:31;100301.63;;;-4.13
66473;BMP280;66089;50.000;10.502;2022-12-18T09:09:57;100305.44;;;-4.00
66473;BMP280;66089;50.000;10.502;2022-12-18T09:12:22;100313.88;;;-4.04
66473;BMP280;66089;50.000;10.502;2022-12-18T09:14:48;100307.38;;;-4.10
66473;BMP280;66089;50.000;10.502;2022-12-18T09:17:14;100301.44;;;-4.06
66473;BMP280;66089;50.000;10.502;2022-12-18T09:19:39;100300.34;;;-3.95
66473;BMP280;66089;50.000;10.502;2022-12-18T09:22:05;100290.94;;;-4.20
66473;BMP280;66089;50.000;10.502;2022-12-18T09:24:30;100294.81;;;-4.07
66473;BMP280;66089;50.000;10.502;2022-12-18T09:26:55;100288.56;;;-3.89
66473;BMP280;66089;50.000;10.502;2022-12-18T09:29:21;100281.00;;;-3.86
66473;BMP280;66089;50.000;10.502;2022-12-18T09:31:46;100274.16;;;-3.79
66473;BMP280;66089;50.000;10.502;2022-12-18T09:34:12;100278.88;;;-3.69
66473;BMP280;66089;50.000;10.502;2022-12-18T09:36:37;100270.94;;;-3.83
66473;BMP280;66089;50.000;10.502;2022-12-18T09:39:03;100280.53;;;-3.68
66473;BMP280;66089;50.000;10.502;2022-12-18T09:41:51;100285.94;;;-3.53
66473;BMP280;66089;50.000;10.502;2022-12-18T09:46:53;100296.69;;;-3.50
66473;BMP280;66089;50.000;10.502;2022-12-18T09:49:22;100291.69;;;-3.48
66473;BMP280;66089;50.000;10.502;2022-12-18T09:52:00;100292.38;;;-3.43
66473;BMP280;66089;50.000;10.502;2022-12-18T09:54:35;100289.75;;;-3.39
66473;BMP280;66089;50.000;10.502;2022-12-18T09:57:01;100285.66;;;-3.41
66473;BMP280;66089;50.000;10.502;2022-12-18T09:59:31;100271.81;;;-3.22
66473;BMP280;66089;50.000;10.502;2022-12-18T10:01:57;100265.84;;;-3.18
66473;BMP280;66089;50.000;10.502;2022-12-18T10:04:24;100265.13;;;-3.21
66473;BMP280;66089;50.000;10.502;2022-12-18T10:07:01;100279.88;;;-3.12
66473;BMP280;66089;50.000;10.502;2022-12-18T10:09:37;100278.44;;;-2.91
66473;BMP280;66089;50.000;10.502;2022-12-18T10:15:08;100280.47;;;-2.76
66473;BMP280;66089;50.000;10.502;2022-12-18T10:17:46;100283.47;;;-2.65
66473;BMP280;66089;50.000;10.502;2022-12-18T10:20:24;100271.91;;;-2.69
66473;BMP280;66089;50.000;10.502;2022-12-18T10:23:04;100274.47;;;-2.71
66473;BMP280;66089;50.000;10.502;2022-12-18T10:26:03;100271.97;;;-2.71
66473;BMP280;66089;50.000;10.502;2022-12-18T10:28:30;100264.50;;;-2.72
66473;BMP280;66089;50.000;10.502;2022-12-18T10:30:56;100275.16;;;-2.65
66473;BMP280;66089;50.000;10.502;2022-12-18T10:33:23;100275.53;;;-2.51
66473;BMP280;66089;50.000;10.502;2022-12-18T10:35:50;100265.16;;;-2.39
66473;BMP280;66089;50.000;10.502;2022-12-18T10:43:31;100268.00;;;-1.98
66473;BMP280;66089;50.000;10.502;2022-12-18T10:48:56;100264.63;;;-1.73
66473;BMP280;66089;50.000;10.502;2022-12-18T10:54:05;100263.34;;;-2.09
66473;BMP280;66089;50.000;10.502;2022-12-18T10:56:33;100264.38;;;-1.90
66473;BMP280;66089;50.000;10.502;2022-12-18T10:59:04;100255.63;;;-1.78
66473;BMP280;66089;50.000;10.502;2022-12-18T11:01:52;100252.56;;;-1.63
66473;BMP280;66089;50.000;10.502;2022-12-18T11:04:23;100243.50;;;-1.42
66473;BMP280;66089;50.000;10.502;2022-12-18T11:07:05;100247.19;;;-1.52
66473;BMP280;66089;50.000;10.502;2022-12-18T11:09:32;100251.63;;;-1.37
66473;BMP280;66089;50.000;10.502;2022-12-18T11:12:00;100253.31;;;-1.38
66473;BMP280;66089;50.000;10.502;2022-12-18T11:14:32;100244.31;;;-1.18
66473;BMP280;66089;50.000;10.502;2022-12-18T11:16:59;100238.69;;;-0.81
66473;BMP280;66089;50.000;10.502;2022-12-18T11:19:34;100245.94;;;-0.95
66473;BMP280;66089;50.000;10.502;2022-12-18T11:22:02;100235.63;;;-0.68
66473;BMP280;66089;50.000;10.502;2022-12-18T11:24:35;100241.88;;;-0.78
66473;BMP280;66089;50.000;10.502;2022-12-18T11:27:03;100237.50;;;-0.73
66473;BMP280;66089;50.000;10.502;2022-12-18T11:29:34;100236.19;;;-0.61
66473;BMP280;66089;50.000;10.502;2022-12-18T11:32:24;100227.53;;;-0.54
66473;BMP280;66089;50.000;10.502;2022-12-18T11:35:04;100220.88;;;-0.35
66473;BMP280;66089;50.000;10.502;2022-12-18T11:37:34;100220.84;;;-0.53
66473;BMP280;66089;50.000;10.502;2022-12-18T11:40:11;100228.38;;;-0.53
66473;BMP280;66089;50.000;10.502;2022-12-18T11:42:46;100233.38;;;-0.74
66473;BMP280;66089;50.000;10.502;2022-12-18T11:50:24;100213.03;;;-1.10
66473;BMP280;66089;50.000;10.502;2022-12-18T11:52:50;100200.09;;;-0.99
66473;BMP280;66089;50.000;10.502;2022-12-18T12:01:11;100204.69;;;-0.68
66473;BMP280;66089;50.000;10.502;2022-12-18T12:12:10;100177.44;;;-0.16
66473;BMP280;66089;50.000;10.502;2022-12-18T12:15:02;100167.69;;;0.15
66473;BMP280;66089;50.000;10.502;2022-12-18T12:17:45;100166.69;;;0.55
66473;BMP280;66089;50.000;10.502;2022-12-18T12:23:18;100174.84;;;1.14
66473;BMP280;66089;50.000;10.502;2022-12-18T12:35:10;100161.88;;;2.19
66473;BMP280;66089;50.000;10.502;2022-12-18T12:40:28;100154.66;;;2.28
66473;BMP280;66089;50.000;10.502;2022-12-18T12:43:02;100151.59;;;2.83
66473;BMP280;66089;50.000;10.502;2022-12-18T12:45:46;100155.66;;;2.56
66473;BMP280;66089;50.000;10.502;2022-12-18T12:51:03;100142.41;;;2.52
66473;BMP280;66089;50.000;10.502;2022-12-18T12:53:34;100139.09;;;1.89
66473;BMP280;66089;50.000;10.502;2022-12-18T12:56:00;100144.13;;;1.73
66473;BMP280;66089;50.000;10.502;2022-12-18T12:58:34;100143.31;;;1.88
66473;BMP280;66089;50.000;10.502;2022-12-18T13:01:28;100137.50;;;1.22
66473;BMP280;66089;50.000;10.502;2022-12-18T13:07:12;100120.13;;;1.17
66473;BMP280;66089;50.000;10.502;2022-12-18T13:15:38;100144.09;;;1.07
66473;BMP280;66089;50.000;10.502;2022-12-18T13:20:35;100135.06;;;0.68
66473;BMP280;66089;50.000;10.502;2022-12-18T13:23:18;100132.75;;;0.81
66473;BMP280;66089;50.000;10.502;2022-12-18T13:25:43;100127.19;;;0.75
66473;BMP280;66089;50.000;10.502;2022-12-18T13:28:14;100123.06;;;0.38
66473;BMP280;66089;50.000;10.502;2022-12-18T13:35:42;100106.38;;;0.37
66473;BMP280;66089;50.000;10.502;2022-12-18T13:43:23;100108.84;;;0.00
66473;BMP280;66089;50.000;10.502;2022-12-18T13:45:58;100108.94;;;-0.20
66473;BMP280;66089;50.000;10.502;2022-12-18T13:48:26;100102.97;;;-0.17
66473;BMP280;66089;50.000;10.502;2022-12-18T13:50:55;100110.41;;;-0.35
66473;BMP280;66089;50.000;10.502;2022-12-18T13:53:25;100104.13;;;-0.24
66473;BMP280;66089;50.000;10.502;2022-12-18T13:55:51;100114.38;;;-0.49
66473;BMP280;66089;50.000;10.502;2022-12-18T13:58:16;100119.41;;;-0.49
66473;BMP280;66089;50.000;10.502;2022-12-18T14:00:43;100115.88;;;-0.65
66473;BMP280;66089;50.000;10.502;2022-12-18T14:03:21;100121.56;;;-0.81
66473;BMP280;66089;50.000;10.502;2022-12-18T14:05:54;100123.66;;;-0.92
66473;BMP280;66089;50.000;10.502;2022-12-18T14:08:20;100121.50;;;-0.79
66473;BMP280;66089;50.000;10.502;2022-12-18T14:10:47;100128.63;;;-0.90
66473;BMP280;66089;50.000;10.502;2022-12-18T14:13:30;100123.53;;;-1.09
66473;BMP280;66089;50.000;10.502;2022-12-18T14:15:57;100128.63;;;-1.11
66473;BMP280;66089;50.000;10.502;2022-12-18T14:18:26;100129.03;;;-0.99
66473;BMP280;66089;50.000;10.502;2022-12-18T14:20:56;100135.84;;;-1.03
66473;BMP280;66089;50.000;10.502;2022-12-18T14:23:36;100140.22;;;-1.08
66473;BMP280;66089;50.000;10.502;2022-12-18T14:26:03;100139.31;;;-1.27
66473;BMP280;66089;50.000;10.502;2022-12-18T14:28:44;100139.31;;;-1.27
66473;BMP280;66089;50.000;10.502;2022-12-18T14:31:18;100129.19;;;-1.24
66473;BMP280;66089;50.000;10.502;2022-12-18T14:33:43;100116.25;;;-1.37
66473;BMP280;66089;50.000;10.502;2022-12-18T14:36:16;100116.19;;;-1.36
66473;BMP280;66089;50.000;10.502;2022-12-18T14:38:42;100120.78;;;-1.45
66473;BMP280;66089;50.000;10.502;2022-12-18T14:41:13;100126.47;;;-1.63
66473;BMP280;66089;50.000;10.502;2022-12-18T14:43:41;100131.19;;;-1.78
66473;BMP280;66089;50.000;10.502;2022-12-18T14:48:51;100132.72;;;-1.97
66473;BMP280;66089;50.000;10.502;2022-12-18T14:51:21;100121.59;;;-1.90
66473;BMP280;66089;50.000;10.502;2022-12-18T14:53:53;100131.06;;;-1.98
66473;BMP280;66089;50.000;10.502;2022-12-18T14:56:27;100142.28;;;-2.08
66473;BMP280;66089;50.000;10.502;2022-12-18T14:58:57;100147.72;;;-2.20
66473;BMP280;66089;50.000;10.502;2022-12-18T15:01:29;100152.59;;;-2.16
66473;BMP280;66089;50.000;10.502;2022-12-18T15:03:56;100148.59;;;-2.21
66473;BMP280;66089;50.000;10.502;2022-12-18T15:06:32;100153.00;;;-2.28
66473;BMP280;66089;50.000;10.502;2022-12-18T15:09:05;100144.03;;;-2.35
66473;BMP280;66089;50.000;10.502;2022-12-18T15:11:46;100145.94;;;-2.42
66473;BMP280;66089;50.000;10.502;2022-12-18T15:16:55;100147.72;;;-2.45
66473;BMP280;66089;50.000;10.502;2022-12-18T15:19:42;100145.03;;;-2.39
66473;BMP280;66089;50.000;10.502;2022-12-18T15:22:24;100155.34;;;-2.48
66473;BMP280;66089;50.000;10.502;2022-12-18T15:24:50;100147.06;;;-2.50
66473;BMP280;66089;50.000;10.502;2022-12-18T15:27:30;100148.34;;;-2.63
66473;BMP280;66089;50.000;10.502;2022-12-18T15:30:15;100146.69;;;-2.64
66473;BMP280;66089;50.000;10.502;2022-12-18T15:32:42;100143.31;;;-2.62
66473;BMP280;66089;50.000;10.502;2022-12-18T15:35:22;100136.78;;;-2.67
66473;BMP280;66089;50.000;10.502;2022-12-18T15:37:48;100137.59;;;-2.67
66473;BMP280;66089;50.000;10.502;2022-12-18T15:40:22;100123.56;;;-2.71
66473;BMP280;66089;50.000;10.502;2022-12-18T15:42:48;100125.28;;;-2.73
66473;BMP280;66089;50.000;10.502;2022-12-18T15:45:33;100125.19;;;-2.70
66473;BMP280;66089;50.000;10.502;2022-12-18T15:47:58;100127.53;;;-2.65
66473;BMP280;66089;50.000;10.502;2022-12-18T15:50:24;100130.25;;;-2.72
66473;BMP280;66089;50.000;10.502;2022-12-18T15:52:52;100119.47;;;-2.74
66473;BMP280;66089;50.000;10.502;2022-12-18T15:55:23;100138.56;;;-2.71
66473;BMP280;66089;50.000;10.502;2022-12-18T15:58:09;100135.44;;;-2.78
66473;BMP280;66089;50.000;10.502;2022-12-18T16:00:35;100139.19;;;-2.89
66473;BMP280;66089;50.000;10.502;2022-12-18T16:03:03;100144.44;;;-2.98
66473;BMP280;66089;50.000;10.502;2022-12-18T16:05:29;100145.97;;;-2.94
66473;BMP280;66089;50.000;10.502;2022-12-18T16:07:54;100139.06;;;-2.86
66473;BMP280;66089;50.000;10.502;2022-12-18T16:10:20;100146.78;;;-2.92
66473;BMP280;66089;50.000;10.502;2022-12-18T16:12:45;100142.34;;;-2.84
66473;BMP280;66089;50.000;10.502;2022-12-18T16:15:12;100138.84;;;-2.80
66473;BMP280;66089;50.000;10.502;2022-12-18T16:17:45;100132.94;;;-2.78
66473;BMP280;66089;50.000;10.502;2022-12-18T16:20:19;100137.94;;;-2.78
66473;BMP280;66089;50.000;10.502;2022-12-18T16:22:46;100133.22;;;-2.85
66473;BMP280;66089;50.000;10.502;2022-12-18T16:25:18;100129.16;;;-2.89
66473;BMP280;66089;50.000;10.502;2022-12-18T16:27:47;100129.84;;;-2.84
66473;BMP280;66089;50.000;10.502;2022-12-18T16:30:14;100124.63;;;-3.05
66473;BMP280;66089;50.000;10.502;2022-12-18T16:32:40;100122.03;;;-3.02
66473;BMP280;66089;50.000;10.502;2022-12-18T16:35:05;100114.31;;;-2.94
66473;BMP280;66089;50.000;10.502;2022-12-18T16:37:31;100123.34;;;-3.16
66473;BMP280;66089;50.000;10.502;2022-12-18T16:39:56;100116.16;;;-3.01
66473;BMP280;66089;50.000;10.502;2022-12-18T16:42:22;100110.78;;;-3.15
66473;BMP280;66089;50.000;10.502;2022-12-18T16:44:50;100099.53;;;-3.02
66473;BMP280;66089;50.000;10.502;2022-12-18T16:47:16;100110.25;;;-2.98
66473;BMP280;66089;50.000;10.502;2022-12-18T16:49:43;100101.28;;;-3.05
66473;BMP280;66089;50.000;10.502;2022-12-18T16:52:10;100098.91;;;-3.08
66473;BMP280;66089;50.000;10.502;2022-12-18T16:54:35;100108.16;;;-3.10
66473;BMP280;66089;50.000;10.502;2022-12-18T16:57:01;100104.06;;;-3.13
66473;BMP280;66089;50.000;10.502;2022-12-18T16:59:27;100102.28;;;-3.09
66473;BMP280;66089;50.000;10.502;2022-12-18T17:01:53;100102.16;;;-3.06
66473;BMP280;66089;50.000;10.502;2022-12-18T17:04:19;100103.78;;;-3.05
66473;BMP280;66089;50.000;10.502;2022-12-18T17:06:45;100103.78;;;-3.05
66473;BMP280;66089;50.000;10.502;2022-12-18T17:09:17;100105.69;;;-3.12
66473;BMP280;66089;50.000;10.502;2022-12-18T17:11:43;100107.47;;;-3.15
66473;BMP280;66089;50.000;10.502;2022-12-18T17:14:15;100097.72;;;-3.23
66473;BMP280;66089;50.000;10.502;2022-12-18T17:16:40;100106.84;;;-3.22
66473;BMP280;66089;50.000;10.502;2022-12-18T17:19:05;100105.28;;;-3.26
66473;BMP280;66089;50.000;10.502;2022-12-18T17:21:31;100108.44;;;-3.19
66473;BMP280;66089;50.000;10.502;2022-12-18T17:23:59;100104.34;;;-3.22
66473;BMP280;66089;50.000;10.502;2022-12-18T17:26:26;100098.16;;;-3.10
66473;BMP280;66089;50.000;10.502;2022-12-18T17:28:51;100103.09;;;-3.09
66473;BMP280;66089;50.000;10.502;2022-12-18T17:31:19;100102.03;;;-3.02
66473;BMP280;66089;50.000;10.502;2022-12-18T17:33:46;100091.97;;;-3.00
66473;BMP280;66089;50.000;10.502;2022-12-18T17:36:11;100101.56;;;-2.86
66473;BMP280;66089;50.000;10.502;2022-12-18T17:38:37;100099.72;;;-2.81
66473;BMP280;66089;50.000;10.502;2022-12-18T17:41:04;100090.69;;;-2.85
66473;BMP280;66089;50.000;10.502;2022-12-18T17:43:30;100084.44;;;-2.74
66473;BMP280;66089;50.000;10.502;2022-12-18T17:45:55;100085.88;;;-2.66
66473;BMP280;66089;50.000;10.502;2022-12-18T17:48:21;100088.34;;;-2.65
66473;BMP280;66089;50.000;10.502;2022-12-18T17:50:46;100090.06;;;-2.67
66473;BMP280;66089;50.000;10.502;2022-12-18T17:53:12;100080.06;;;-2.67
66473;BMP280;66089;50.000;10.502;2022-12-18T17:55:37;100078.25;;;-2.62
66473;BMP280;66089;50.000;10.502;2022-12-18T17:58:03;100082.66;;;-2.70
66473;BMP280;66089;50.000;10.502;2022-12-18T18:00:28;100079.88;;;-2.61
66473;BMP280;66089;50.000;10.502;2022-12-18T18:02:54;100088.78;;;-2.54
66473;BMP280;66089;50.000;10.502;2022-12-18T18:05:19;100085.81;;;-2.63
66473;BMP280;66089;50.000;10.502;2022-12-18T18:07:45;100097.22;;;-2.56
66473;BMP280;66089;50.000;10.502;2022-12-18T18:10:10;100087.72;;;-2.47
66473;BMP280;66089;50.000;10.502;2022-12-18T18:12:36;100073.53;;;-2.46
66473;BMP280;66089;50.000;10.502;2022-12-18T18:15:19;100080.06;;;-2.42
66473;BMP280;66089;50.000;10.502;2022-12-18T18:17:46;100081.78;;;-2.44
66473;BMP280;66089;50.000;10.502;2022-12-18T18:20:11;100081.63;;;-2.40
66473;BMP280;66089;50.000;10.502;2022-12-18T18:22:40;100084.19;;;-2.41
66473;BMP280;66089;50.000;10.502;2022-12-18T18:25:05;100079.13;;;-2.40
66473;BMP280;66089;50.000;10.502;2022-12-18T18:27:31;100075.63;;;-2.36
66473;BMP280;66089;50.000;10.502;2022-12-18T18:29:56;100068.84;;;-2.32
66473;BMP280;66089;50.000;10.502;2022-12-18T18:32:22;100063.88;;;-2.33
66473;BMP280;66089;50.000;10.502;2022-12-18T18:34:48;100061.25;;;-2.29
66473;BMP280;66089;50.000;10.502;2022-12-18T18:37:13;100066.53;;;-2.37
66473;BMP280;66089;50.000;10.502;2022-12-18T18:39:38;100065.34;;;-2.26
66473;BMP280;66089;50.000;10.502;2022-12-18T18:42:04;100060.44;;;-2.29
66473;BMP280;66089;50.000;10.502;2022-12-18T18:44:30;100053.75;;;-2.29
66473;BMP280;66089;50.000;10.502;2022-12-18T18:46:56;100061.84;;;-2.22
66473;BMP280;66089;50.000;10.502;2022-12-18T18:49:22;100064.41;;;-2.24
66473;BMP280;66089;50.000;10.502;2022-12-18T18:51:52;100057.94;;;-2.29
66473;BMP280;66089;50.000;10.502;2022-12-18T18:54:18;100053.56;;;-2.24
66473;BMP280;66089;50.000;10.502;2022-12-18T18:56:43;100047.66;;;-2.22
66473;BMP280;66089;50.000;10.502;2022-12-18T18:59:09;100049.88;;;-2.14
66473;BMP280;66089;50.000;10.502;2022-12-18T19:01:34;100040.09;;;-2.20
66473;BMP280;66089;50.000;10.502;2022-12-18T19:03:59;100029.13;;;-2.18
66473;BMP280;66089;50.000;10.502;2022-12-18T19:06:26;100029.25;;;-2.21
66473;BMP280;66089;50.000;10.502;2022-12-18T19:08:54;100022.00;;;-2.28
66473;BMP280;66089;50.000;10.502;2022-12-18T19:11:21;100033.66;;;-2.27
66473;BMP280;66089;50.000;10.502;2022-12-18T19:14:07;100037.56;;;-2.20
66473;BMP280;66089;50.000;10.502;2022-12-18T19:16:33;100034.31;;;-2.22
66473;BMP280;66089;50.000;10.502;2022-12-18T19:18:59;100042.59;;;-2.20
66473;BMP280;66089;50.000;10.502;2022-12-18T19:21:26;100031.91;;;-2.25
66473;BMP280;66089;50.000;10.502;2022-12-18T19:23:51;100039.25;;;-2.21
66473;BMP280;66089;50.000;10.502;2022-12-18T19:26:17;100042.31;;;-2.13
66473;BMP280;66089;50.000;10.502;2022-12-18T19:28:43;100038.09;;;-2.12
66473;BMP280;66089;50.000;10.502;2022-12-18T19:31:11;100036.59;;;-2.16
66473;BMP280;66089;50.000;10.502;2022-12-18T19:33:39;100036.94;;;-2.25
66473;BMP280;66089;50.000;10.502;2022-12-18T19:36:16;100034.31;;;-2.22
66473;BMP280;66089;50.000;10.502;2022-12-18T19:38:43;100028.31;;;-2.18
66473;BMP280;66089;50.000;10.502;2022-12-18T19:41:09;100022.50;;;-2.19
66473;BMP280;66089;50.000;10.502;2022-12-18T19:43:38;100015.00;;;-2.19
66473;BMP280;66089;50.000;10.502;2022-12-18T19:46:05;100014.81;;;-2.14
66473;BMP280;66089;50.000;10.502;2022-12-18T19:48:32;100018.97;;;-2.13
66473;BMP280;66089;50.000;10.502;2022-12-18T19:51:08;100022.97;;;-2.09
66473;BMP280;66089;50.000;10.502;2022-12-18T19:53:35;100007.72;;;-2.03
66473;BMP280;66089;50.000;10.502;2022-12-18T19:56:08;100004.91;;;-1.95
66473;BMP280;66089;50.000;10.502;2022-12-18T19:58:35;99997.34;;;-1.94
66473;BMP280;66089;50.000;10.502;2022-12-18T20:01:01;99994.97;;;-1.97
66473;BMP280;66089;50.000;10.502;2022-12-18T20:03:27;100001.06;;;-2.04
66473;BMP280;66089;50.000;10.502;2022-12-18T20:05:53;100012.50;;;-1.97
66473;BMP280;66089;50.000;10.502;2022-12-18T20:08:18;100012.38;;;-1.94
66473;BMP280;66089;50.000;10.502;2022-12-18T20:10:43;100000.72;;;-1.95
66473;BMP280;66089;50.000;10.502;2022-12-18T20:13:13;100004.81;;;-1.92
66473;BMP280;66089;50.000;10.502;2022-12-18T20:15:38;100010.56;;;-1.90
66473;BMP280;66089;50.000;10.502;2022-12-18T20:18:04;100017.28;;;-1.91
66473;BMP280;66089;50.000;10.502;2022-12-18T20:20:35;100022.81;;;-1.83
66473;BMP280;66089;50.000;10.502;2022-12-18T20:23:01;100021.81;;;-1.79
66473;BMP280;66089;50.000;10.502;2022-12-18T20:25:27;100021.94;;;-1.82
66473;BMP280;66089;50.000;10.502;2022-12-18T20:27:53;100025.25;;;-1.81
66473;BMP280;66089;50.000;10.502;2022-12-18T20:30:18;100031.72;;;-1.76
66473;BMP280;66089;50.000;10.502;2022-12-18T20:32:43;100033.38;;;-1.75
66473;BMP280;66089;50.000;10.502;2022-12-18T20:35:09;100028.41;;;-1.76
66473;BMP280;66089;50.000;10.502;2022-12-18T20:37:34;100005.81;;;-1.75
66473;BMP280;66089;50.000;10.502;2022-12-18T20:39:59;100016.66;;;-1.74
66473;BMP280;66089;50.000;10.502;2022-12-18T20:42:25;100007.38;;;-1.72
66473;BMP280;66089;50.000;10.502;2022-12-18T20:44:50;100010.06;;;-1.77
66473;BMP280;66089;50.000;10.502;2022-12-18T20:47:15;100010.06;;;-1.77
66473;BMP280;66089;50.000;10.502;2022-12-18T20:49:40;99991.66;;;-1.76
66473;BMP280;66089;50.000;10.502;2022-12-18T20:52:06;99998.41;;;-1.78
66473;BMP280;66089;50.000;10.502;2022-12-18T20:54:31;99990.88;;;-1.78
66473;BMP280;66089;50.000;10.502;2022-12-18T20:56:57;100001.78;;;-1.79
66473;BMP280;66089;50.000;10.502;2022-12-18T20:59:22;100002.72;;;-1.81
66473;BMP280;66089;50.000;10.502;2022-12-18T21:01:50;99995.13;;;-1.80
66473;BMP280;66089;50.000;10.502;2022-12-18T21:04:19;99986.09;;;-1.84
66473;BMP280;66089;50.000;10.502;2022-12-18T21:06:48;99982.31;;;-1.72
66473;BMP280;66089;50.000;10.502;2022-12-18T21:09:13;99997.41;;;-1.74
66473;BMP280;66089;50.000;10.502;2022-12-18T21:11:38;99992.22;;;-1.69
66473;BMP280;66089;50.000;10.502;2022-12-18T21:14:24;99998.72;;;-1.65
66473;BMP280;66089;50.000;10.502;2022-12-18T21:16:50;100005.31;;;-1.62
66473;BMP280;66089;50.000;10.502;2022-12-18T21:19:18;99999.53;;;-1.64
66473;BMP280;66089;50.000;10.502;2022-12-18T21:21:44;99997.19;;;-1.67
66473;BMP280;66089;50.000;10.502;2022-12-18T21:24:10;99993.16;;;-1.72
66473;BMP280;66089;50.000;10.502;2022-12-18T21:26:36;99996.38;;;-1.68
66473;BMP280;66089;50.000;10.502;2022-12-18T21:29:05;100004.69;;;-1.67
66473;BMP280;66089;50.000;10.502;2022-12-18T21:31:34;100001.31;;;-1.66
66473;BMP280;66089;50.000;10.502;2022-12-18T21:34:00;100002.25;;;-1.69
66473;BMP280;66089;50.000;10.502;2022-12-18T21:36:26;99988.84;;;-1.68
66473;BMP280;66089;50.000;10.502;2022-12-18T21:38:52;99996.22;;;-1.65
66473;BMP280;66089;50.000;10.502;2022-12-18T21:41:18;99985.25;;;-1.62
66473;BMP280;66089;50.000;10.502;2022-12-18T21:44:03;99977.75;;;-1.62
66473;BMP280;66089;50.000;10.502;2022-12-18T21:46:39;99983.38;;;-1.57
66473;BMP280;66089;50.000;10.502;2022-12-18T21:49:07;99982.28;;;-1.50
66473;BMP280;66089;50.000;10.502;2022-12-18T21:51:33;99979.00;;;-1.52
66473;BMP280;66089;50.000;10.502;2022-12-18T21:53:59;99992.25;;;-1.49
66473;BMP280;66089;50.000;10.502;2022-12-18T21:56:42;99993.00;;;-1.47
66473;BMP280;66089;50.000;10.502;2022-12-18T21:59:07;99991.09;;;-1.42
66473;BMP280;66089;50.000;10.502;2022-12-18T22:01:32;99992.06;;;-1.44
66473;BMP280;66089;50.000;10.502;2022-12-18T22:03:58;99999.44;;;-1.41
66473;BMP280;66089;50.000;10.502;2022-12-18T22:06:23;99968.34;;;-1.37
66473;BMP280;66089;50.000;10.502;2022-12-18T22:08:48;99969.34;;;-1.41
66473;BMP280;66089;50.000;10.502;2022-12-18T22:11:13;99953.31;;;-1.37
66473;BMP280;66089;50.000;10.502;2022-12-18T22:13:39;99966.78;;;-1.40
66473;BMP280;66089;50.000;10.502;2022-12-18T22:16:05;99967.53;;;-1.38
66473;BMP280;66089;50.000;10.502;2022-12-18T22:18:30;99956.69;;;-1.38
66473;BMP280;66089;50.000;10.502;2022-12-18T22:21:03;99961.59;;;-1.35
66473;BMP280;66089;50.000;10.502;2022-12-18T22:23:29;99965.09;;;-1.39
66473;BMP280;66089;50.000;10.502;2022-12-18T22:25:54;99975.72;;;-1.32
66473;BMP280;66089;50.000;10.502;2022-12-18T22:28:20;99966.44;;;-1.30
66473;BMP280;66089;50.000;10.502;2022-12-18T22:31:04;99968.13;;;-1.31
66473;BMP280;66089;50.000;10.502;2022-12-18T22:33:29;99970.69;;;-1.32
66473;BMP280;66089;50.000;10.502;2022-12-18T22:35:54;99957.44;;;-1.36
66473;BMP280;66089;50.000;10.502;2022-12-18T22:38:20;99947.19;;;-1.30
66473;BMP280;66089;50.000;10.502;2022-12-18T22:40:45;99951.97;;;-1.24
66473;BMP280;66089;50.000;10.502;2022-12-18T22:43:10;99946.88;;;-1.22
